Time;durP1;ratioP1;P1;durP2;ratioP2;P2;SDS_P1;SDS_P2;PMS_P1;PMS_P2;Temp;Humidity;BMP_temperature;BMP_pressure;BME280_temperature;BME280_humidity;BME280_pressure;Samples;Min_cycle;Max_cycle;Signal;HPM_P1;HPM_P2
2022/02/25 00:05:52;;;;;;;3.03;1.08;;;2.70;99.90;;;;;;12482500;28;20041;-41
2022/02/25 00:11:54;;;;;;;5.25;1.23;;;2.80;99.90;;;;;;12481118;28;20083;-40
2022/02/25 00:17:56;;;;;;;7.55;1.40;;;2.90;99.90;;;;;;12478037;28;20046;-36
2022/02/25 00:23:58;;;;;;;6.95;1.70;;;2.90;99.90;;;;;;12481278;28;20061;-38
2022/02/25 00:30:00;;;;;;;5.18;2.40;;;2.80;99.90;;;;;;12480488;28;20057;-36
2022/02/25 00:36:02;;;;;;;5.38;2.17;;;2.80;99.90;;;;;;12478185;28;20048;-41
2022/02/25 00:42:07;;;;;;;8.45;2.30;;;2.80;99.90;;;;;;12480676;28;20057;-40
2022/02/25 00:48:09;;;;;;;6.18;1.73;;;2.80;99.90;;;;;;12481570;28;20057;-41
2022/02/25 00:54:11;;;;;;;6.07;2.10;;;2.70;99.90;;;;;;12481889;28;20573;-36
2022/02/25 01:00:15;;;;;;;4.15;2.15;;;2.60;99.90;;;;;;12478551;28;20046;-36
2022/02/25 01:06:17;;;;;;;6.47;2.42;;;2.40;99.90;;;;;;12481886;28;20056;-36
2022/02/25 01:12:19;;;;;;;5.70;2.75;;;2.50;99.90;;;;;;12483197;28;20053;-36
2022/02/25 01:18:21;;;;;;;12.18;2.80;;;2.50;99.90;;;;;;12486635;28;20049;-36
2022/02/25 01:24:23;;;;;;;7.00;3.40;;;2.50;99.90;;;;;;12473178;28;20053;-41
2022/02/25 01:30:25;;;;;;;5.65;3.30;;;2.50;99.90;;;;;;12491068;28;20069;-36
2022/02/25 01:36:28;;;;;;;8.63;3.80;;;2.40;99.90;;;;;;12491742;28;20056;-36
2022/02/25 01:42:29;;;;;;;9.73;3.50;;;2.40;99.90;;;;;;12471003;28;20133;-41
2022/02/25 01:48:32;;;;;;;11.55;3.35;;;2.30;99.90;;;;;;12488874;28;20052;-36
2022/02/25 01:54:34;;;;;;;10.25;3.97;;;2.30;99.90;;;;;;12478139;28;20136;-37
2022/02/25 02:00:36;;;;;;;8.48;3.47;;;2.10;99.90;;;;;;12488457;28;20056;-37
2022/02/25 02:06:39;;;;;;;9.73;4.40;;;2.00;99.90;;;;;;12489527;28;20086;-37
2022/02/25 02:12:41;;;;;;;8.82;4.00;;;2.00;99.90;;;;;;12489302;28;20061;-37
2022/02/25 02:18:43;;;;;;;13.25;5.13;;;2.00;99.90;;;;;;12490271;28;20496;-40
2022/02/25 02:24:45;;;;;;;11.10;5.18;;;1.90;99.90;;;;;;12487221;28;20104;-36
2022/02/25 02:30:49;;;;;;;13.25;6.93;;;1.90;99.90;;;;;;12489524;28;20620;-40
2022/02/25 02:36:51;;;;;;;12.20;5.67;;;2.00;99.90;;;;;;12488760;28;20049;-40
2022/02/25 02:42:53;;;;;;;11.02;5.78;;;2.10;99.90;;;;;;12486728;28;20136;-36
2022/02/25 02:48:55;;;;;;;8.02;5.20;;;2.20;99.90;;;;;;12486843;28;20908;-37
2022/02/25 02:54:57;;;;;;;8.70;5.35;;;2.20;99.90;;;;;;12485031;28;20081;-40
2022/02/25 03:01:00;;;;;;;13.35;5.70;;;2.20;99.90;;;;;;12489154;28;20053;-40
2022/02/25 03:07:02;;;;;;;11.93;5.30;;;2.30;99.90;;;;;;12485902;28;20064;-37
2022/02/25 03:13:06;;;;;;;9.82;5.13;;;2.30;99.90;;;;;;12483481;28;23037;-37
2022/02/25 03:19:08;;;;;;;8.60;4.43;;;2.40;99.90;;;;;;12489156;28;20081;-40
2022/02/25 03:25:13;;;;;;;18.65;5.93;;;2.40;99.90;;;;;;12486606;28;20053;-36
2022/02/25 03:31:15;;;;;;;12.95;4.60;;;2.40;99.90;;;;;;12491715;28;20045;-37
2022/02/25 03:37:18;;;;;;;10.90;4.80;;;2.40;99.90;;;;;;12486159;28;20545;-40
2022/02/25 03:43:20;;;;;;;8.18;4.07;;;2.40;99.90;;;;;;12484549;28;20088;-36
2022/02/25 03:49:22;;;;;;;14.38;4.97;;;2.50;99.90;;;;;;12484477;28;20053;-36
2022/02/25 03:55:24;;;;;;;9.80;4.55;;;2.50;99.90;;;;;;12475525;28;20746;-41
2022/02/25 04:01:26;;;;;;;13.57;5.63;;;2.50;99.90;;;;;;12482643;28;20568;-37
2022/02/25 04:07:29;;;;;;;11.90;4.18;;;2.50;99.90;;;;;;12478260;28;20087;-36
2022/02/25 04:13:31;;;;;;;11.00;4.03;;;2.50;99.90;;;;;;12473508;28;21574;-40
2022/02/25 04:19:33;;;;;;;10.75;3.70;;;2.50;99.90;;;;;;12482128;28;20549;-40
2022/02/25 04:25:35;;;;;;;14.85;3.72;;;2.60;99.90;;;;;;12464343;28;20487;-41
2022/02/25 04:31:37;;;;;;;9.25;3.47;;;2.60;99.90;;;;;;12463190;28;20135;-41
2022/02/25 04:37:40;;;;;;;10.13;3.88;;;2.60;99.90;;;;;;12485855;28;20064;-36
2022/02/25 04:43:42;;;;;;;12.20;3.78;;;2.60;99.90;;;;;;12479717;28;20123;-40
2022/02/25 04:49:44;;;;;;;14.00;3.70;;;2.60;99.90;;;;;;12462749;28;20068;-41
2022/02/25 04:55:47;;;;;;;10.63;3.35;;;2.60;99.90;;;;;;12478974;28;20106;-41
2022/02/25 05:01:49;;;;;;;6.97;3.20;;;2.50;99.90;;;;;;12478083;28;20749;-36
2022/02/25 05:07:51;;;;;;;9.45;3.10;;;2.50;99.90;;;;;;12478193;28;20944;-41
2022/02/25 05:13:53;;;;;;;7.22;2.80;;;2.50;99.90;;;;;;12480678;28;20045;-36
2022/02/25 05:26:16;;;;;;;10.70;3.65;;;2.30;99.90;;;;;;12482797;28;20053;-40
2022/02/25 05:32:21;;;;;;;9.55;2.70;;;2.40;99.90;;;;;;12484339;28;20833;-40
2022/02/25 05:38:23;;;;;;;9.88;2.92;;;2.30;99.90;;;;;;12482425;28;20053;-40
2022/02/25 05:44:25;;;;;;;9.50;2.90;;;2.20;99.90;;;;;;12485908;28;20071;-36
2022/02/25 05:50:28;;;;;;;8.10;3.08;;;2.20;99.90;;;;;;12480720;28;20053;-41
2022/02/25 05:56:30;;;;;;;14.52;3.97;;;2.20;99.90;;;;;;12465621;28;20160;-40
2022/02/25 06:02:33;;;;;;;7.93;2.88;;;2.20;99.90;;;;;;12484868;28;20102;-40
2022/02/25 06:08:35;;;;;;;12.15;2.67;;;2.20;99.90;;;;;;12489715;28;20052;-37
2022/02/25 06:14:37;;;;;;;13.45;3.15;;;2.30;99.90;;;;;;12488263;28;20053;-36
2022/02/25 06:20:39;;;;;;;10.38;3.30;;;2.20;99.90;;;;;;12490912;28;21091;-37
2022/02/25 06:26:42;;;;;;;11.50;3.50;;;2.20;99.90;;;;;;12491515;28;20223;-36
2022/02/25 06:32:45;;;;;;;11.60;2.42;;;2.20;99.90;;;;;;12489511;28;20049;-36
2022/02/25 06:38:48;;;;;;;12.25;2.97;;;2.30;99.90;;;;;;12489345;28;20137;-37
2022/02/25 06:44:50;;;;;;;7.95;2.33;;;2.30;99.90;;;;;;12489985;28;20109;-36
2022/02/25 06:50:52;;;;;;;10.57;2.10;;;2.30;99.90;;;;;;12486171;28;20041;-40
2022/02/25 06:56:55;;;;;;;11.07;1.90;;;2.30;99.90;;;;;;12484359;28;20097;-42
2022/02/25 07:02:57;;;;;;;15.45;2.90;;;2.40;99.90;;;;;;12485657;28;20620;-41
2022/02/25 07:09:01;;;;;;;10.38;2.33;;;2.50;99.90;;;;;;12480744;28;20053;-40
2022/02/25 07:15:06;;;;;;;13.23;2.30;;;2.60;99.90;;;;;;12481241;28;20481;-36
2022/02/25 07:21:11;;;;;;;10.48;1.90;;;2.50;99.90;;;;;;12483264;28;20037;-40
2022/02/25 07:27:13;;;;;;;12.77;2.08;;;2.60;99.90;;;;;;12479592;28;20398;-36
2022/02/25 07:33:15;;;;;;;17.20;3.92;;;2.80;99.90;;;;;;12483343;28;20067;-36
2022/02/25 07:39:17;;;;;;;11.85;2.67;;;3.00;99.90;;;;;;12481350;28;20043;-37
2022/02/25 07:45:19;;;;;;;11.95;2.38;;;3.00;99.90;;;;;;12481351;28;20148;-36
2022/02/25 07:51:22;;;;;;;9.20;1.80;;;3.00;99.90;;;;;;12484715;28;20515;-40
2022/02/25 07:57:24;;;;;;;15.38;2.53;;;3.00;99.90;;;;;;12486508;28;20049;-36
2022/02/25 08:03:47;;;;;;;13.13;2.33;;;3.00;99.90;;;;;;12480704;28;20045;-36
2022/02/25 08:09:49;;;;;;;13.68;2.65;;;3.00;99.90;;;;;;12477726;28;20619;-41
2022/02/25 08:15:52;;;;;;;16.15;2.78;;;3.20;99.90;;;;;;12483070;28;20083;-41
2022/02/25 08:21:58;;;;;;;11.02;2.50;;;3.40;99.90;;;;;;12474100;28;20088;-41
2022/02/25 08:28:00;;;;;;;7.50;1.90;;;3.50;99.90;;;;;;12522568;28;20606;-37
2022/02/25 08:34:03;;;;;;;9.60;2.00;;;3.60;99.90;;;;;;12528604;28;20052;-36
2022/02/25 08:40:06;;;;;;;12.10;2.15;;;3.90;99.90;;;;;;12533751;28;20069;-37
2022/02/25 08:46:10;;;;;;;11.23;2.67;;;3.90;99.90;;;;;;12529228;28;20107;-41
2022/02/25 08:52:13;;;;;;;21.55;2.70;;;3.80;99.90;;;;;;12526435;28;20742;-40
2022/02/25 08:58:15;;;;;;;13.63;2.80;;;3.80;99.90;;;;;;12526307;28;20088;-36
2022/02/25 09:04:17;;;;;;;14.20;3.33;;;3.90;99.90;;;;;;12523384;28;20064;-42
2022/02/25 09:10:19;;;;;;;18.25;4.50;;;3.40;99.90;;;;;;12534049;28;20084;-41
2022/02/25 09:16:21;;;;;;;13.23;3.72;;;3.20;99.90;;;;;;12529301;28;20135;-42
2022/02/25 09:22:24;;;;;;;18.50;4.50;;;3.20;99.90;;;;;;12529909;28;20048;-40
2022/02/25 09:28:26;;;;;;;19.20;3.83;;;3.20;99.90;;;;;;12486554;28;20057;-36
2022/02/25 09:34:29;;;;;;;14.30;4.05;;;3.30;99.90;;;;;;12483851;28;20048;-36
2022/02/25 09:40:32;;;;;;;16.15;5.20;;;3.30;99.90;;;;;;12485746;28;20508;-41
2022/02/25 09:46:34;;;;;;;16.27;5.03;;;3.20;99.90;;;;;;12498392;28;20045;-41
2022/02/25 09:52:38;;;;;;;13.63;5.80;;;3.20;99.90;;;;;;12490559;28;20405;-41
2022/02/25 09:58:40;;;;;;;17.35;7.35;;;3.20;99.90;;;;;;12490896;28;20552;-41
2022/02/25 10:04:42;;;;;;;14.75;5.45;;;3.20;99.90;;;;;;12484503;28;23176;-41
2022/02/25 10:10:53;;;;;;;14.88;6.13;;;3.20;99.90;;;;;;12489119;28;20049;-41
2022/02/25 10:17:15;;;;;;;11.35;4.55;;;3.40;99.90;;;;;;12488919;28;20053;-37
2022/02/25 10:23:23;;;;;;;11.63;4.72;;;3.70;99.90;;;;;;12489351;28;20087;-37
2022/02/25 10:29:25;;;;;;;12.82;4.85;;;3.80;99.90;;;;;;12489035;28;20092;-37
2022/02/25 10:35:30;;;;;;;10.68;4.07;;;3.70;99.90;;;;;;12492025;28;20143;-41
2022/02/25 10:41:32;;;;;;;13.52;4.10;;;3.90;99.90;;;;;;12487416;28;20425;-41
2022/02/25 10:47:34;;;;;;;16.17;4.70;;;4.20;99.90;;;;;;12489793;28;20122;-41
2022/02/25 10:53:50;;;;;;;10.73;3.80;;;4.40;99.90;;;;;;12488689;28;20045;-40
2022/02/25 10:59:53;;;;;;;11.50;3.85;;;4.70;99.90;;;;;;12490249;28;20108;-37
2022/02/25 11:06:00;;;;;;;11.25;3.80;;;4.70;99.90;;;;;;12489884;28;20460;-40
2022/02/25 11:12:02;;;;;;;13.70;3.95;;;4.50;99.90;;;;;;12483535;28;20068;-41
2022/02/25 11:18:08;;;;;;;12.70;3.50;;;4.00;99.90;;;;;;12484305;28;20053;-40
2022/02/25 11:24:11;;;;;;;12.65;4.10;;;4.10;99.90;;;;;;12485144;28;20085;-37
2022/02/25 11:30:20;;;;;;;18.05;4.68;;;4.30;99.90;;;;;;12482115;28;20042;-41
2022/02/25 11:36:42;;;;;;;13.25;3.22;;;4.60;99.90;;;;;;12490494;28;20140;-37
2022/02/25 11:42:48;;;;;;;14.57;3.53;;;4.60;99.90;;;;;;12497321;28;20104;-41
2022/02/25 11:48:53;;;;;;;18.65;3.08;;;4.80;99.90;;;;;;12497422;28;20052;-37
2022/02/25 11:54:55;;;;;;;13.63;2.83;;;4.90;99.90;;;;;;12496009;28;20136;-42
2022/02/25 12:01:05;;;;;;;8.05;2.63;;;5.00;99.90;;;;;;12497586;28;20048;-38
2022/02/25 12:07:28;;;;;;;14.55;2.80;;;5.20;99.90;;;;;;12497437;28;20044;-43
2022/02/25 12:13:31;;;;;;;11.50;2.50;;;5.30;99.90;;;;;;12477837;28;20520;-41
2022/02/25 12:19:35;;;;;;;7.85;2.50;;;5.70;99.90;;;;;;12494342;28;20089;-41
2022/02/25 12:25:39;;;;;;;10.40;2.30;;;5.80;99.90;;;;;;12497861;28;20145;-38
2022/02/25 12:31:47;;;;;;;13.50;3.00;;;5.60;99.90;;;;;;12496626;28;20075;-40
2022/02/25 12:37:51;;;;;;;14.57;3.72;;;5.30;99.90;;;;;;12495869;28;20069;-40
2022/02/25 12:44:00;;;;;;;6.00;1.83;;;5.10;99.90;;;;;;12494677;28;20080;-37
2022/02/25 12:50:04;;;;;;;8.52;1.70;;;4.80;99.90;;;;;;12493480;28;20048;-41
2022/02/25 12:56:08;;;;;;;8.80;1.98;;;4.80;99.90;;;;;;12501374;28;20095;-41
2022/02/25 13:02:16;;;;;;;10.70;2.07;;;5.50;99.90;;;;;;12495282;28;20136;-38
2022/02/25 13:08:19;;;;;;;7.70;2.03;;;5.50;99.90;;;;;;12492055;28;20061;-42
2022/02/25 13:14:43;;;;;;;9.63;2.47;;;5.70;99.90;;;;;;12501629;28;20072;-40
2022/02/25 13:20:58;;;;;;;9.77;2.50;;;5.70;99.90;;;;;;12505532;28;20136;-41
2022/02/25 13:27:06;;;;;;;8.30;1.67;;;5.60;99.90;;;;;;12505687;28;20057;-41
2022/02/25 13:33:13;;;;;;;14.23;1.98;;;5.40;99.90;;;;;;12503142;28;20041;-41
2022/02/25 13:39:27;;;;;;;7.93;1.88;;;5.20;99.90;;;;;;12496983;28;20049;-41
2022/02/25 13:45:34;;;;;;;0.87;0.23;;;4.90;99.90;;;;;;12505263;28;20081;-36
2022/02/25 13:58:00;;;;;;;4.10;0.40;;;3.20;99.90;;;;;;12501514;28;20102;-36
2022/02/25 14:04:17;;;;;;;2.92;0.40;;;3.00;99.90;;;;;;12503221;28;20056;-38
2022/02/25 14:10:28;;;;;;;4.38;0.82;;;3.20;99.90;;;;;;12502073;28;20104;-37
2022/02/25 14:16:36;;;;;;;4.15;0.90;;;3.40;99.90;;;;;;12498825;28;20053;-42
2022/02/25 14:22:46;;;;;;;1.50;0.45;;;3.50;99.90;;;;;;12498094;28;20076;-41
2022/02/25 14:28:52;;;;;;;3.70;0.60;;;3.90;99.90;;;;;;12502313;28;20494;-40
2022/02/25 14:34:55;;;;;;;1.38;0.45;;;4.20;99.90;;;;;;12495866;28;20128;-41
2022/02/25 14:40:57;;;;;;;7.32;1.30;;;4.20;99.90;;;;;;12501414;28;20597;-37
2022/02/25 14:46:59;;;;;;;3.80;0.50;;;4.50;99.90;;;;;;12501366;28;20133;-40
2022/02/25 14:53:01;;;;;;;1.13;0.50;;;4.90;99.90;;;;;;12497827;28;20120;-42
2022/02/25 14:59:03;;;;;;;3.80;0.30;;;5.10;99.90;;;;;;12501273;28;20482;-42
2022/02/25 15:05:05;;;;;;;2.67;0.50;;;5.10;99.90;;;;;;12494694;28;20797;-38
2022/02/25 15:11:07;;;;;;;2.47;0.40;;;4.90;99.90;;;;;;12496592;28;20083;-42
2022/02/25 15:17:09;;;;;;;3.58;0.60;;;4.60;99.90;;;;;;12497151;28;20048;-37
2022/02/25 15:23:12;;;;;;;5.15;1.05;;;4.10;99.90;;;;;;12501025;28;20080;-40
2022/02/25 15:29:14;;;;;;;3.55;0.75;;;3.90;99.90;;;;;;12499408;28;20077;-38
2022/02/25 15:35:16;;;;;;;6.03;0.70;;;3.90;99.90;;;;;;12499274;28;20136;-40
2022/02/25 15:41:18;;;;;;;5.15;0.82;;;3.90;99.90;;;;;;12496681;28;20042;-37
2022/02/25 15:47:20;;;;;;;4.95;0.75;;;4.00;99.90;;;;;;12497789;28;20088;-41
2022/02/25 15:53:22;;;;;;;4.78;0.73;;;4.20;99.90;;;;;;12493081;28;20051;-37
2022/02/25 15:59:25;;;;;;;2.00;0.70;;;4.10;99.90;;;;;;12502630;28;21363;-40
2022/02/25 16:05:26;;;;;;;3.20;0.60;;;4.10;99.90;;;;;;12498114;28;20052;-38
2022/02/25 16:11:28;;;;;;;4.00;0.43;;;4.20;99.90;;;;;;12500587;28;20118;-37
2022/02/25 16:17:30;;;;;;;3.33;0.90;;;4.20;99.90;;;;;;12496725;28;20045;-38
2022/02/25 16:23:33;;;;;;;3.63;0.77;;;4.10;99.90;;;;;;12500144;28;20049;-37
2022/02/25 16:29:35;;;;;;;4.25;0.88;;;4.10;99.90;;;;;;12497058;28;20131;-37
2022/02/25 16:35:37;;;;;;;3.88;0.80;;;4.00;99.90;;;;;;12479846;28;20140;-37
2022/02/25 16:41:39;;;;;;;3.05;0.95;;;4.00;99.90;;;;;;12500190;28;20140;-37
2022/02/25 16:47:41;;;;;;;4.15;1.05;;;3.90;99.90;;;;;;12497870;28;20100;-37
2022/02/25 16:53:43;;;;;;;4.10;1.00;;;3.90;99.90;;;;;;12496610;28;20768;-38
2022/02/25 16:59:46;;;;;;;6.40;1.23;;;3.90;99.90;;;;;;12500463;28;20045;-38
2022/02/25 17:05:48;;;;;;;5.05;1.00;;;3.90;99.90;;;;;;12499592;28;20045;-41
2022/02/25 17:11:51;;;;;;;9.82;1.63;;;3.80;99.90;;;;;;12495076;28;20076;-37
2022/02/25 17:17:53;;;;;;;8.50;1.52;;;3.70;99.90;;;;;;12495239;28;20056;-40
2022/02/25 17:23:55;;;;;;;11.57;1.50;;;3.60;99.90;;;;;;12493490;28;20049;-37
2022/02/25 17:29:57;;;;;;;12.90;1.58;;;3.60;99.90;;;;;;12496336;28;20413;-41
2022/02/25 17:35:59;;;;;;;9.82;1.50;;;3.50;99.90;;;;;;12491826;28;20049;-37
2022/02/25 17:42:06;;;;;;;11.95;1.65;;;3.40;99.90;;;;;;12492734;28;20498;-40
2022/02/25 17:48:09;;;;;;;6.47;1.15;;;3.30;99.90;;;;;;12494608;28;20053;-37
2022/02/25 17:54:11;;;;;;;6.88;1.38;;;3.20;99.90;;;;;;12498229;28;20148;-37
2022/02/25 18:00:15;;;;;;;5.55;1.30;;;3.10;99.90;;;;;;12500059;28;20068;-41
2022/02/25 18:06:17;;;;;;;5.25;1.48;;;2.90;99.90;;;;;;12504111;28;20064;-41
2022/02/25 18:12:19;;;;;;;8.32;2.00;;;2.90;99.90;;;;;;12501640;28;20461;-37
2022/02/25 18:18:21;;;;;;;8.45;1.83;;;2.80;99.90;;;;;;12501509;28;20490;-42
2022/02/25 18:24:23;;;;;;;8.13;2.38;;;2.70;99.90;;;;;;12504530;28;20061;-37
2022/02/25 18:30:25;;;;;;;8.73;2.25;;;2.70;99.90;;;;;;12505113;28;20061;-42
2022/02/25 18:36:27;;;;;;;12.23;2.40;;;2.80;99.90;;;;;;12501447;28;20079;-38
2022/02/25 18:42:29;;;;;;;8.85;2.10;;;2.90;99.90;;;;;;12503808;28;20073;-41
2022/02/25 18:48:32;;;;;;;5.32;2.03;;;3.10;99.90;;;;;;12506320;28;20053;-38
2022/02/25 18:54:35;;;;;;;10.95;2.30;;;3.20;99.90;;;;;;12507375;28;20045;-37
2022/02/25 19:00:37;;;;;;;17.88;4.03;;;3.40;99.90;;;;;;12498016;28;20456;-37
2022/02/25 19:06:40;;;;;;;11.95;2.25;;;3.40;99.90;;;;;;12498921;28;20136;-37
2022/02/25 19:12:42;;;;;;;9.90;2.63;;;3.40;99.90;;;;;;12496798;28;20079;-37
2022/02/25 19:18:47;;;;;;;15.48;3.20;;;3.30;99.90;;;;;;12500905;28;20475;-44
2022/02/25 19:24:49;;;;;;;11.27;2.10;;;3.20;99.90;;;;;;12503276;28;20060;-41
2022/02/25 19:30:50;;;;;;;9.70;2.33;;;3.10;99.90;;;;;;12501893;28;20124;-41
2022/02/25 19:36:54;;;;;;;13.30;2.67;;;3.00;99.90;;;;;;12503664;28;20064;-41
2022/02/25 19:42:55;;;;;;;24.65;2.88;;;3.00;99.90;;;;;;12497748;28;20128;-37
2022/02/25 19:48:58;;;;;;;14.88;2.25;;;3.00;99.90;;;;;;12482039;28;20090;-41
2022/02/25 19:55:03;;;;;;;21.42;2.42;;;3.00;99.90;;;;;;12494737;28;20037;-37
2022/02/25 20:01:07;;;;;;;15.95;2.63;;;3.10;99.90;;;;;;12501915;28;20501;-42
2022/02/25 20:07:09;;;;;;;22.58;2.78;;;3.10;99.90;;;;;;12500840;28;20056;-41
2022/02/25 20:13:12;;;;;;;14.88;2.65;;;3.10;99.90;;;;;;12497487;28;20052;-37
2022/02/25 20:19:14;;;;;;;15.23;2.40;;;3.10;99.90;;;;;;12498448;28;20045;-38
2022/02/25 20:25:16;;;;;;;16.20;2.63;;;3.00;99.90;;;;;;12497139;28;20061;-37
2022/02/25 20:31:18;;;;;;;15.40;2.67;;;3.00;99.90;;;;;;12499851;28;20544;-38
2022/02/25 20:37:21;;;;;;;18.85;2.53;;;2.60;99.90;;;;;;12499265;28;20046;-41
2022/02/25 20:43:23;;;;;;;17.30;2.60;;;2.40;99.90;;;;;;12499490;28;20156;-37
2022/02/25 20:49:25;;;;;;;14.68;2.72;;;2.60;99.90;;;;;;12498926;28;20057;-41
2022/02/25 20:55:28;;;;;;;26.67;3.22;;;2.70;99.90;;;;;;12498037;28;20102;-41
2022/02/25 21:01:33;;;;;;;19.52;3.75;;;2.90;99.90;;;;;;12497456;28;20041;-37
2022/02/25 21:07:38;;;;;;;20.88;3.50;;;2.90;99.90;;;;;;12494563;28;20049;-38
2022/02/25 21:13:40;;;;;;;15.30;2.42;;;3.00;99.90;;;;;;12494537;28;20111;-37
2022/02/25 21:19:43;;;;;;;15.80;2.60;;;2.90;99.90;;;;;;12498192;28;20064;-41
2022/02/25 21:25:45;;;;;;;24.02;4.00;;;2.90;99.90;;;;;;12493489;28;20569;-38
2022/02/25 21:31:47;;;;;;;22.58;2.95;;;2.80;99.90;;;;;;12496761;28;20053;-37
2022/02/25 21:37:52;;;;;;;15.07;2.85;;;2.90;99.90;;;;;;12506800;28;20052;-37
2022/02/25 21:43:55;;;;;;;24.73;3.50;;;2.90;99.90;;;;;;12502965;28;20061;-37
2022/02/25 21:49:57;;;;;;;16.23;2.65;;;2.90;99.90;;;;;;12503145;28;20052;-37
2022/02/25 21:56:04;;;;;;;21.50;3.28;;;2.90;99.90;;;;;;12507878;28;20052;-37
2022/02/25 22:02:08;;;;;;;18.77;2.70;;;2.90;99.90;;;;;;12504212;28;20102;-42
2022/02/25 22:08:10;;;;;;;24.80;3.22;;;2.90;99.90;;;;;;12503852;28;20160;-41
2022/02/25 22:14:12;;;;;;;25.75;2.80;;;2.90;99.90;;;;;;12504730;28;20045;-40
2022/02/25 22:20:15;;;;;;;25.58;3.10;;;2.80;99.90;;;;;;12492935;28;20126;-40
2022/02/25 22:26:17;;;;;;;20.63;2.58;;;2.80;99.90;;;;;;12486061;28;20057;-38
2022/02/25 22:32:19;;;;;;;14.75;3.08;;;2.70;99.90;;;;;;12504024;28;20087;-41
2022/02/25 22:38:24;;;;;;;25.10;3.15;;;2.70;99.90;;;;;;12485734;28;20504;-37
2022/02/25 22:44:26;;;;;;;19.55;3.20;;;2.70;99.90;;;;;;12500546;28;20049;-40
2022/02/25 23:03:11;;;;;;;19.95;3.55;;;2.40;99.90;;;;;;12505447;28;20088;-40
2022/02/25 23:09:14;;;;;;;24.13;2.88;;;2.50;99.90;;;;;;12502439;28;20486;-40
2022/02/25 23:15:16;;;;;;;26.13;4.72;;;2.50;99.90;;;;;;12503719;28;20086;-41
2022/02/25 23:21:18;;;;;;;23.75;3.10;;;2.70;99.90;;;;;;12503239;28;20512;-40
2022/02/25 23:27:19;;;;;;;16.75;2.58;;;2.70;99.90;;;;;;12502096;28;20106;-41
2022/02/25 23:33:21;;;;;;;21.90;2.97;;;2.80;99.90;;;;;;12501130;28;20435;-40
2022/02/25 23:39:24;;;;;;;21.17;3.17;;;2.80;99.90;;;;;;12501911;28;20192;-37
2022/02/25 23:45:26;;;;;;;27.95;3.25;;;2.80;99.90;;;;;;12498223;28;20152;-37
2022/02/25 23:51:28;;;;;;;20.63;3.50;;;2.70;99.90;;;;;;12501738;28;20056;-40
2022/02/25 23:57:30;;;;;;;24.73;3.05;;;2.70;99.90;;;;;;12500666;28;20418;-37
